Time;durP1;ratioP1;P1;durP2;ratioP2;P2;SDS_P1;SDS_P2;PMS_P1;PMS_P2;Temp;Humidity;BMP_temperature;BMP_pressure;BME280_temperature;BME280_humidity;BME280_pressure;Samples;Min_cycle;Max_cycle;Signal;HPM_P1;HPM_P2
2022/08/12 00:57:18;;;;;;;7.20;3.40;;;;;;;18.34;79.55;101208.52;656886;1284;139854;-81
2022/08/12 01:12:22;;;;;;;6.90;3.50;;;;;;;18.29;80.37;101217.70;658084;1283;138789;-81
2022/08/12 01:27:27;;;;;;;7.00;3.50;;;;;;;17.93;80.17;101205.55;657481;1283;139353;-81
2022/08/12 01:42:40;;;;;;;8.20;4.10;;;;;;;17.72;81.74;101202.39;657819;1282;139613;-81
2022/08/12 01:58:10;;;;;;;6.50;3.50;;;;;;;17.67;82.48;101201.70;655054;1282;140089;-82
2022/08/12 02:13:29;;;;;;;;;;;;;;;17.62;84.16;101196.05;656646;1283;139071;-81
2022/08/12 02:28:51;;;;;;;7.50;4.00;;;;;;;17.46;84.12;101199.98;657972;1283;125442;-82
2022/08/12 02:43:59;;;;;;;6.60;3.70;;;;;;;17.44;84.44;101198.94;657835;1282;139615;-80
2022/08/12 02:59:03;;;;;;;9.40;3.70;;;;;;;17.32;84.87;101192.92;657897;1283;139273;-81
2022/08/12 03:14:12;;;;;;;7.10;3.70;;;;;;;17.20;85.63;101195.27;657229;1283;139976;-81
2022/08/12 03:29:18;;;;;;;6.10;4.00;;;;;;;17.16;86.67;101192.89;655452;1283;140210;-82
2022/08/12 04:15:30;;;;;;;5.70;3.80;;;;;;;17.31;88.60;101194.96;656883;1283;140147;-81
2022/08/12 04:30:35;;;;;;;12.80;4.90;;;;;;;17.53;89.27;101205.63;654937;1282;140103;-82
2022/08/12 04:45:39;;;;;;;6.30;3.80;;;;;;;17.80;88.73;101198.20;657418;1283;140311;-81
2022/08/12 05:00:42;;;;;;;10.20;4.30;;;;;;;18.20;88.44;101215.50;657683;1282;141263;-83
2022/08/12 05:15:46;;;;;;;9.90;4.70;;;;;;;18.96;88.01;101207.70;657716;1283;139279;-81
2022/08/12 05:31:07;;;;;;;38.80;19.00;;;;;;;19.67;87.57;101194.02;656515;1283;140583;-81
2022/08/12 05:46:10;;;;;;;9.80;4.40;;;;;;;20.37;86.74;101191.21;655992;1283;139838;-81
2022/08/12 06:01:15;;;;;;;14.10;3.90;;;;;;;21.19;85.51;101199.30;654942;1282;138679;-81
2022/08/12 06:16:38;;;;;;;7.80;3.30;;;;;;;22.03;84.01;101192.98;653685;1283;139877;-82
2022/08/12 06:31:44;;;;;;;6.60;2.70;;;;;;;23.04;81.30;101185.92;656082;1282;139583;-82
2022/08/12 06:46:47;;;;;;;3.10;1.90;;;;;;;24.14;75.90;101187.21;652905;1282;139014;-81
2022/08/12 07:01:53;;;;;;;4.30;1.50;;;;;;;25.16;69.74;101187.52;654464;1283;138470;-83
2022/08/12 07:17:00;;;;;;;3.00;1.60;;;;;;;26.06;66.24;101193.08;655655;1283;138106;-81
2022/08/12 07:32:04;;;;;;;4.10;2.10;;;;;;;27.18;63.27;101184.11;655057;1281;138138;-82
2022/08/12 07:47:07;;;;;;;3.00;1.30;;;;;;;28.12;59.86;101175.77;655933;1282;138163;-83
2022/08/12 08:02:14;;;;;;;2.60;1.80;;;;;;;28.94;57.68;101170.02;655626;1283;138490;-83
2022/08/12 08:17:18;;;;;;;4.20;1.40;;;;;;;29.66;56.19;101171.48;655911;1283;137945;-82
2022/08/12 08:32:23;;;;;;;5.60;2.00;;;;;;;30.58;53.62;101169.73;658893;1283;137961;-82
2022/08/12 08:47:26;;;;;;;4.00;1.70;;;;;;;30.67;51.64;101168.13;653970;1282;138583;-82
2022/08/12 09:02:30;;;;;;;5.40;1.50;;;;;;;30.63;50.75;101155.92;654244;1283;139152;-83
2022/08/12 09:17:34;;;;;;;3.00;1.70;;;;;;;31.36;49.77;101157.15;652653;1283;139364;-80
2022/08/12 09:32:58;;;;;;;2.50;1.50;;;;;;;31.97;49.29;101168.45;654679;1283;139290;-81
2022/08/12 09:48:21;;;;;;;3.20;1.80;;;;;;;32.75;48.72;101165.23;652943;1283;1620552;-81
2022/08/12 10:03:30;;;;;;;8.20;1.90;;;;;;;33.17;47.75;101154.31;656455;1278;139827;-81
2022/08/12 10:18:36;;;;;;;4.60;1.70;;;;;;;33.85;47.32;101143.07;658005;1277;139078;-81
2022/08/12 10:33:54;;;;;;;4.60;1.70;;;;;;;34.35;46.97;101130.95;659327;1277;139437;-82
2022/08/12 10:49:26;;;;;;;1.80;1.60;;;;;;;34.48;46.60;101115.13;656690;1278;138886;-84
2022/08/12 11:04:50;;;;;;;3.40;1.70;;;;;;;33.35;47.92;101094.96;655182;1278;138120;-83
2022/08/12 11:19:55;;;;;;;2.80;1.80;;;;;;;32.97;48.45;101076.90;658490;1277;138019;-83
2022/08/12 11:34:58;;;;;;;3.40;1.90;;;;;;;32.93;48.14;101068.58;658571;1277;138027;-83
2022/08/12 11:50:04;;;;;;;3.10;1.90;;;;;;;33.49;48.02;101070.74;656442;1277;137938;-83
2022/08/12 12:05:08;;;;;;;3.00;2.00;;;;;;;34.16;46.64;101064.69;657726;1277;138870;-80
2022/08/12 12:20:12;;;;;;;3.30;1.80;;;;;;;34.15;46.34;101052.39;658524;1277;138384;-81
2022/08/12 12:35:16;;;;;;;3.50;1.90;;;;;;;35.32;45.73;101036.19;657389;1277;138245;-82
2022/08/12 12:50:43;;;;;;;3.60;2.40;;;;;;;36.77;44.22;101028.09;657219;1278;138265;-82
2022/08/12 13:05:55;;;;;;;3.10;1.90;;;;;;;35.96;43.85;101019.66;657076;1277;138915;-81
2022/08/12 13:21:01;;;;;;;4.70;2.00;;;;;;;34.61;44.78;101006.83;657576;1277;138844;-81
2022/08/12 13:36:05;;;;;;;4.90;2.50;;;;;;;35.77;44.82;100986.77;658955;1277;139325;-82
2022/08/12 13:51:15;;;;;;;4.40;2.40;;;;;;;35.29;43.94;100980.89;657742;1277;138877;-81
2022/08/12 14:06:27;;;;;;;5.20;4.00;;;;;;;34.42;45.41;100971.52;656617;1277;138086;-81
2022/08/12 14:21:35;;;;;;;4.50;2.30;;;;;;;35.97;44.82;100963.77;656708;1277;138205;-81
2022/08/12 14:37:01;;;;;;;2.60;2.20;;;;;;;42.90;39.38;100959.34;659366;1277;138368;-80
2022/08/12 14:52:09;;;;;;;4.90;2.60;;;;;;;44.82;36.56;100949.05;658243;1277;138501;-82
2022/08/12 15:07:33;;;;;;;3.10;2.10;;;;;;;41.29;38.80;100938.16;656638;1277;138050;-81
2022/08/12 15:22:56;;;;;;;4.80;2.50;;;;;;;41.02;39.01;100927.06;660152;1278;138266;-80
2022/08/12 15:38:07;;;;;;;6.40;2.20;;;;;;;36.29;42.39;100915.71;659267;1277;138057;-80
2022/08/12 15:53:15;;;;;;;6.20;2.30;;;;;;;35.08;44.87;100913.23;654987;1278;139594;-80
2022/08/12 16:08:22;;;;;;;4.20;2.30;;;;;;;34.83;45.39;100904.19;655785;1277;139903;-82
2022/08/12 16:23:30;;;;;;;5.60;2.80;;;;;;;33.31;46.67;100897.73;655648;1277;138335;-82
2022/08/12 16:38:53;;;;;;;3.60;2.60;;;;;;;32.35;48.18;100894.58;657269;1277;139594;-79
2022/08/12 16:53:57;;;;;;;38.70;18.90;;;;;;;31.81;49.42;100891.85;656489;1277;138136;-81
2022/08/12 17:09:02;;;;;;;9.60;4.90;;;;;;;31.38;50.38;100891.06;656846;1277;139552;-81
2022/08/12 17:24:22;;;;;;;9.20;3.60;;;;;;;30.62;51.82;100892.10;655522;1277;139535;-80
2022/08/12 17:39:33;;;;;;;7.10;3.60;;;;;;;30.05;52.74;100888.61;656083;1277;138440;-82
2022/08/12 17:54:58;;;;;;;10.20;4.40;;;;;;;29.38;54.56;100892.29;657328;1277;138079;-81
2022/08/12 18:10:03;;;;;;;7.00;3.30;;;;;;;28.96;55.95;100889.80;656683;1277;139972;-80
2022/08/12 18:25:09;;;;;;;9.90;3.20;;;;;;;28.58;56.81;100894.01;656736;1279;138060;-80
2022/08/12 18:56:05;;;;;;;8.70;3.70;;;;;;;27.78;57.98;100904.42;656000;1277;138375;-81
2022/08/12 19:26:54;;;;;;;9.20;3.90;;;;;;;27.12;60.30;100906.64;655729;1278;138701;-81
2022/08/12 19:42:00;;;;;;;8.60;4.00;;;;;;;26.69;61.36;100906.63;657003;1277;138686;-80
2022/08/12 19:57:06;;;;;;;7.40;3.60;;;;;;;26.28;62.29;100911.66;656769;1278;139486;-82
2022/08/12 20:12:10;;;;;;;8.00;3.20;;;;;;;26.02;63.01;100927.02;660029;1277;137992;-80
2022/08/12 20:27:25;;;;;;;8.10;3.20;;;;;;;25.97;63.41;100922.35;660406;1277;139819;-80
2022/08/12 20:42:51;;;;;;;5.80;3.60;;;;;;;25.97;63.70;100924.28;657970;1278;138338;-81
2022/08/12 20:57:54;;;;;;;13.20;5.20;;;;;;;25.99;63.66;100928.86;658369;1277;140111;-81
2022/08/12 21:13:06;;;;;;;10.30;6.00;;;;;;;25.81;64.56;100934.94;658208;1277;139093;-81
2022/08/12 21:28:23;;;;;;;11.10;7.20;;;;;;;25.61;65.46;100941.31;658348;1277;138177;-82
2022/08/12 21:43:34;;;;;;;7.60;4.90;;;;;;;25.43;66.22;100940.63;657678;1277;1393122;-81
2022/08/12 21:58:51;;;;;;;7.80;4.70;;;;;;;25.44;66.86;100941.70;658251;1277;138541;-79
2022/08/12 22:13:54;;;;;;;6.20;4.20;;;;;;;25.37;67.12;100924.81;658217;1278;139383;-80
2022/08/12 22:59:57;;;;;;;6.10;3.30;;;;;;;25.32;68.36;100914.29;663935;1277;138861;-80
2022/08/12 23:15:01;;;;;;;4.00;3.50;;;;;;;25.23;69.50;100909.31;663980;1279;139230;-80
2022/08/12 23:30:05;;;;;;;9.70;3.40;;;;;;;25.03;70.67;100899.50;660670;1277;137931;-81
2022/08/12 23:45:22;;;;;;;8.90;3.90;;;;;;;24.73;71.59;100891.65;659730;1279;138399;-81
